createdAt,value
2018-10-17T00:00:58.976Z,41.43
2018-10-17T00:03:27.630Z,35.50
2018-10-17T00:05:56.294Z,32.83
2018-10-17T00:08:24.920Z,30.70
2018-10-17T00:10:53.590Z,32.80
2018-10-17T00:13:22.206Z,29.37
2018-10-17T00:15:50.858Z,29.03
2018-10-17T00:18:19.488Z,25.27
2018-10-17T00:20:48.162Z,28.23
2018-10-17T00:23:16.883Z,24.93
2018-10-17T00:25:45.441Z,25.77
2018-10-17T00:28:14.088Z,24.00
2018-10-17T00:30:42.744Z,24.53
2018-10-17T00:33:11.362Z,26.83
2018-10-17T00:35:40.017Z,25.87
2018-10-17T00:38:08.690Z,32.43
2018-10-17T00:40:37.333Z,28.73
2018-10-17T00:43:06.049Z,30.90
2018-10-17T00:45:34.617Z,27.13
2018-10-17T00:48:03.275Z,31.27
2018-10-17T00:50:31.923Z,29.83
2018-10-17T00:53:00.597Z,20.07
2018-10-17T00:55:29.247Z,30.37
2018-10-17T00:57:57.879Z,20.10
2018-10-17T01:00:26.592Z,22.70
2018-10-17T01:02:55.229Z,19.80
2018-10-17T01:05:23.869Z,20.93
2018-10-17T01:07:52.533Z,20.73
2018-10-17T01:10:21.229Z,20.43
2018-10-17T01:12:49.880Z,23.30
2018-10-17T01:15:18.540Z,20.27
2018-10-17T01:17:47.206Z,19.80
2018-10-17T01:20:15.858Z,18.63
2018-10-17T01:22:44.510Z,20.83
2018-10-17T01:25:13.204Z,20.70
2018-10-17T01:27:41.832Z,23.00
2018-10-17T01:30:10.452Z,18.73
2018-10-17T01:32:39.094Z,21.37
2018-10-17T01:35:07.917Z,20.03
2018-10-17T01:37:36.550Z,19.03
2018-10-17T01:40:05.760Z,17.60
2018-10-17T01:42:34.409Z,17.40
2018-10-17T01:45:03.046Z,19.50
2018-10-17T01:47:31.722Z,23.77
2018-10-17T01:50:00.361Z,20.80
2018-10-17T01:52:29.000Z,25.20
2018-10-17T01:54:57.658Z,19.17
2018-10-17T01:57:26.283Z,26.13
2018-10-17T01:59:54.944Z,17.20
2018-10-17T02:02:23.604Z,21.80
2018-10-17T02:04:52.268Z,18.80
2018-10-17T02:07:20.916Z,17.30
2018-10-17T02:09:49.564Z,19.43
2018-10-17T02:12:18.199Z,18.83
2018-10-17T02:14:46.840Z,18.00
2018-10-17T02:17:15.553Z,18.77
2018-10-17T02:19:44.153Z,19.17
2018-10-17T02:22:12.876Z,18.73
2018-10-17T02:24:41.539Z,16.77
2018-10-17T02:27:10.193Z,18.07
2018-10-17T02:29:38.847Z,24.77
2018-10-17T02:32:07.487Z,16.87
2018-10-17T02:34:40.389Z,19.77
2018-10-17T02:37:09.075Z,23.87
2018-10-17T02:39:37.838Z,19.60
2018-10-17T02:42:06.313Z,15.43
2018-10-17T02:44:34.965Z,16.83
2018-10-17T02:47:03.747Z,22.70
2018-10-17T02:49:32.322Z,20.53
2018-10-17T02:52:00.959Z,20.37
2018-10-17T02:54:29.630Z,21.73
2018-10-17T02:56:58.287Z,20.10
2018-10-17T02:59:26.948Z,16.97
2018-10-17T03:01:55.585Z,17.87
2018-10-17T03:04:24.255Z,18.27
2018-10-17T03:06:52.967Z,17.50
2018-10-17T03:09:22.556Z,22.77
2018-10-17T03:11:51.208Z,20.17
2018-10-17T03:14:19.868Z,22.30
2018-10-17T03:16:48.536Z,16.83
2018-10-17T03:19:17.266Z,22.23
2018-10-17T03:21:45.865Z,17.73
2018-10-17T03:24:14.500Z,17.80
2018-10-17T03:26:43.202Z,23.90
2018-10-17T03:29:11.894Z,19.93
2018-10-17T03:31:40.496Z,16.77
2018-10-17T03:34:09.178Z,19.13
2018-10-17T03:36:38.000Z,17.43
2018-10-17T03:39:08.587Z,18.27
2018-10-17T03:41:37.388Z,24.17
2018-10-17T03:44:06.134Z,21.60
2018-10-17T03:46:34.866Z,20.00
2018-10-17T03:49:03.643Z,23.57
2018-10-17T03:51:32.310Z,28.43
2018-10-17T03:54:00.975Z,19.87
2018-10-17T03:56:29.699Z,19.50
2018-10-17T03:58:58.359Z,20.67
2018-10-17T04:01:27.003Z,18.53
2018-10-17T04:03:55.700Z,20.47
2018-10-17T04:06:24.384Z,19.93
2018-10-17T04:08:53.155Z,22.30
2018-10-17T04:11:21.811Z,20.57
2018-10-17T04:13:50.441Z,19.57
2018-10-17T04:16:19.114Z,22.70
2018-10-17T04:18:47.751Z,22.60
2018-10-17T04:21:16.417Z,22.50
2018-10-17T04:23:45.079Z,21.57
2018-10-17T04:26:13.737Z,20.57
2018-10-17T04:28:42.448Z,22.67
2018-10-17T04:31:11.145Z,24.73
2018-10-17T04:33:39.765Z,20.10
2018-10-17T04:36:08.490Z,22.23
2018-10-17T04:38:37.069Z,18.63
2018-10-17T04:41:05.761Z,22.37
2018-10-17T04:43:34.401Z,22.30
2018-10-17T04:46:03.067Z,22.63
2018-10-17T04:48:31.723Z,21.57
2018-10-17T04:51:00.371Z,19.73
2018-10-17T04:53:29.038Z,26.87
2018-10-17T04:55:57.684Z,21.07
2018-10-17T04:58:26.406Z,24.27
2018-10-17T05:00:55.149Z,24.37
2018-10-17T05:03:23.816Z,23.83
2018-10-17T05:05:52.567Z,26.27
2018-10-17T05:08:21.217Z,24.10
2018-10-17T05:10:49.869Z,28.80
2018-10-17T05:13:18.530Z,32.97
2018-10-17T05:15:47.254Z,30.60
2018-10-17T05:18:15.908Z,22.83
2018-10-17T05:20:44.592Z,26.90
2018-10-17T05:23:13.310Z,29.33
2018-10-17T05:25:41.886Z,23.20
2018-10-17T05:28:10.558Z,22.70
2018-10-17T05:30:39.253Z,21.20
2018-10-17T05:33:08.828Z,25.97
2018-10-17T05:35:37.500Z,23.13
2018-10-17T05:38:06.678Z,25.70
2018-10-17T05:40:35.350Z,24.97
2018-10-17T05:43:04.337Z,20.27
2018-10-17T05:45:32.943Z,23.17
2018-10-17T05:48:01.602Z,24.77
2018-10-17T05:50:30.274Z,23.27
2018-10-17T05:52:58.935Z,22.33
2018-10-17T05:55:27.572Z,21.57
2018-10-17T05:57:56.484Z,25.67
2018-10-17T06:00:25.161Z,24.90
2018-10-17T06:02:53.821Z,26.43
2018-10-17T06:05:22.453Z,27.00
2018-10-17T06:07:51.097Z,26.13
2018-10-17T06:10:19.840Z,25.23
2018-10-17T06:12:48.373Z,20.90
2018-10-17T06:15:17.062Z,23.67
2018-10-17T06:17:45.712Z,21.50
2018-10-17T06:20:14.402Z,30.77
2018-10-17T06:22:43.049Z,22.13
2018-10-17T06:25:11.768Z,20.00
2018-10-17T06:27:40.390Z,26.53
2018-10-17T06:30:10.202Z,22.30
2018-10-17T06:32:39.186Z,27.40
2018-10-17T06:35:08.300Z,21.47
2018-10-17T06:37:37.306Z,24.67
2018-10-17T06:40:06.640Z,24.80
2018-10-17T06:42:35.289Z,21.87
2018-10-17T06:45:04.551Z,33.10
2018-10-17T06:47:33.199Z,23.63
2018-10-17T06:50:01.858Z,22.10
2018-10-17T06:52:30.502Z,24.30
2018-10-17T06:54:59.186Z,25.30
2018-10-17T06:57:27.972Z,23.03
2018-10-17T06:59:56.630Z,29.10
2018-10-17T07:02:25.291Z,22.73
2018-10-17T07:04:53.936Z,29.40
2018-10-17T07:07:22.581Z,26.67
2018-10-17T07:09:51.375Z,23.93
2018-10-17T07:12:20.036Z,31.43
2018-10-17T07:14:48.692Z,27.40
2018-10-17T07:17:17.364Z,26.00
2018-10-17T07:19:46.120Z,29.03
2018-10-17T07:22:14.797Z,26.73
2018-10-17T07:24:43.450Z,24.97
2018-10-17T07:27:12.128Z,25.73
2018-10-17T07:29:40.952Z,25.73
2018-10-17T07:32:09.512Z,26.53
2018-10-17T07:34:38.175Z,31.57
2018-10-17T07:37:07.159Z,27.00
2018-10-17T07:39:35.886Z,27.80
2018-10-17T07:42:04.571Z,32.53
2018-10-17T07:44:33.170Z,24.77
2018-10-17T07:47:01.869Z,27.70
2018-10-17T07:49:30.558Z,32.27
2018-10-17T07:51:59.214Z,27.57
2018-10-17T07:54:27.852Z,25.93
2018-10-17T07:56:56.575Z,27.53
2018-10-17T07:59:25.441Z,25.67
2018-10-17T08:01:54.210Z,30.13
2018-10-17T08:04:22.949Z,28.53
2018-10-17T08:06:51.622Z,27.30
2018-10-17T08:09:20.350Z,27.60
2018-10-17T08:11:49.036Z,28.13
2018-10-17T08:14:18.376Z,35.57
2018-10-17T08:16:46.945Z,30.23
2018-10-17T08:19:15.624Z,36.83
2018-10-17T08:21:44.300Z,31.53
2018-10-17T08:24:13.064Z,36.23
2018-10-17T08:26:41.658Z,30.13
2018-10-17T08:29:10.380Z,26.57
2018-10-17T08:31:39.137Z,39.23
2018-10-17T08:34:07.896Z,36.57
2018-10-17T08:36:36.799Z,37.67
2018-10-17T08:39:07.392Z,28.33
2018-10-17T08:41:36.127Z,29.13
2018-10-17T08:44:04.886Z,30.63
2018-10-17T08:46:33.503Z,29.17
2018-10-17T08:49:02.244Z,33.50
2018-10-17T08:51:30.883Z,53.03
2018-10-17T08:53:59.565Z,58.53
2018-10-17T08:56:28.233Z,48.90
2018-10-17T08:58:56.928Z,52.40
2018-10-17T09:01:25.610Z,39.83
2018-10-17T09:03:54.271Z,37.70
2018-10-17T09:06:22.938Z,36.17
2018-10-17T09:08:51.708Z,59.40
2018-10-17T09:11:20.451Z,30.57
2018-10-17T09:13:49.223Z,30.27
2018-10-17T09:16:17.998Z,34.17
2018-10-17T09:18:46.524Z,29.07
2018-10-17T09:21:15.535Z,36.10
2018-10-17T09:23:43.873Z,33.57
2018-10-17T09:26:12.551Z,32.03
2018-10-17T09:28:41.205Z,29.83
2018-10-17T09:31:09.859Z,33.67
2018-10-17T09:33:38.517Z,33.13
2018-10-17T09:36:07.229Z,35.67
2018-10-17T09:38:35.821Z,25.10
2018-10-17T09:41:04.484Z,27.07
2018-10-17T09:43:33.155Z,33.37
2018-10-17T09:46:01.802Z,23.83
2018-10-17T09:48:30.464Z,28.07
2018-10-17T09:50:59.229Z,26.37
2018-10-17T09:53:28.014Z,31.40
2018-10-17T09:55:56.595Z,31.53
2018-10-17T09:58:25.307Z,23.30
2018-10-17T10:00:59.328Z,28.60
2018-10-17T10:03:28.004Z,22.23
2018-10-17T10:05:56.705Z,25.50
2018-10-17T10:08:25.460Z,27.70
2018-10-17T10:10:54.191Z,21.47
2018-10-17T10:13:22.788Z,22.97
2018-10-17T10:15:51.495Z,22.60
2018-10-17T10:18:20.089Z,22.30
2018-10-17T10:20:48.757Z,23.50
2018-10-17T10:23:17.533Z,22.90
2018-10-17T10:25:46.094Z,24.60
2018-10-17T10:28:14.803Z,27.87
2018-10-17T10:30:43.460Z,26.40
2018-10-17T10:33:12.132Z,22.13
2018-10-17T10:35:40.778Z,23.20
2018-10-17T10:38:09.457Z,25.87
2018-10-17T10:40:38.147Z,26.03
2018-10-17T10:43:06.808Z,22.60
2018-10-17T10:45:35.548Z,24.47
2018-10-17T10:48:04.122Z,18.90
2018-10-17T10:50:32.787Z,23.70
2018-10-17T10:53:01.563Z,18.23
2018-10-17T10:55:30.166Z,21.60
2018-10-17T10:57:58.907Z,19.00
2018-10-17T11:00:27.505Z,26.30
2018-10-17T11:02:56.182Z,24.10
2018-10-17T11:05:25.015Z,29.93
2018-10-17T11:07:53.611Z,29.67
2018-10-17T11:10:22.276Z,25.70
2018-10-17T11:12:50.922Z,26.67
2018-10-17T11:15:19.583Z,25.07
2018-10-17T11:17:48.220Z,30.80
2018-10-17T11:20:16.936Z,21.20
2018-10-17T11:22:45.595Z,24.93
2018-10-17T11:25:14.439Z,28.07
2018-10-17T11:27:43.287Z,26.83
2018-10-17T11:30:12.477Z,23.13
2018-10-17T11:32:41.161Z,19.83
2018-10-17T11:35:10.623Z,22.37
2018-10-17T11:37:39.311Z,25.03
2018-10-17T11:40:08.245Z,21.33
2018-10-17T11:42:36.915Z,21.23
2018-10-17T11:45:06.027Z,22.70
2018-10-17T11:47:34.785Z,24.37
2018-10-17T11:50:04.269Z,22.60
2018-10-17T11:52:32.925Z,21.23
2018-10-17T11:55:01.594Z,25.90
2018-10-17T11:57:30.236Z,20.77
2018-10-17T11:59:58.917Z,22.10
2018-10-17T12:02:27.648Z,27.27
2018-10-17T12:04:56.570Z,23.67
2018-10-17T12:07:25.058Z,24.97
2018-10-17T12:09:53.754Z,24.43
2018-10-17T12:12:22.459Z,23.60
2018-10-17T12:14:51.133Z,25.17
2018-10-17T12:17:19.725Z,21.30
2018-10-17T12:19:48.428Z,22.33
2018-10-17T12:22:17.068Z,20.77
2018-10-17T12:24:45.748Z,27.63
2018-10-17T12:27:21.082Z,27.67
2018-10-17T12:29:49.794Z,20.13
2018-10-17T12:32:18.533Z,22.33
2018-10-17T12:34:47.339Z,18.87
2018-10-17T12:37:16.200Z,25.20
2018-10-17T12:39:45.061Z,24.40
2018-10-17T12:42:13.806Z,25.47
2018-10-17T12:44:42.586Z,21.23
2018-10-17T12:47:11.389Z,21.70
2018-10-17T12:49:40.055Z,20.37
2018-10-17T12:52:08.764Z,21.13
2018-10-17T12:54:37.515Z,21.97
2018-10-17T12:57:06.574Z,23.50
2018-10-17T12:59:35.416Z,27.23
2018-10-17T13:02:04.067Z,23.20
2018-10-17T13:04:32.778Z,21.53
2018-10-17T13:07:01.466Z,21.27
2018-10-17T13:09:30.108Z,25.87
2018-10-17T13:11:58.752Z,23.03
2018-10-17T13:14:27.423Z,25.90
2018-10-17T13:16:56.195Z,24.53
2018-10-17T13:19:25.276Z,22.77
2018-10-17T13:21:53.937Z,24.43
2018-10-17T13:24:22.576Z,23.37
2018-10-17T13:26:51.233Z,24.07
2018-10-17T13:29:19.877Z,26.83
2018-10-17T13:31:48.527Z,33.20
2018-10-17T13:34:17.208Z,74.63
2018-10-17T13:36:45.846Z,28.20
2018-10-17T13:39:14.927Z,35.47
2018-10-17T13:41:43.702Z,33.33
2018-10-17T13:44:12.477Z,24.23
2018-10-17T13:46:41.245Z,27.77
2018-10-17T13:49:09.999Z,32.33
2018-10-17T13:51:38.608Z,29.97
2018-10-17T13:54:07.293Z,36.73
2018-10-17T13:56:35.965Z,36.77
2018-10-17T13:59:04.676Z,31.43
2018-10-17T14:01:33.377Z,26.90
2018-10-17T14:04:02.061Z,31.53
2018-10-17T14:06:30.737Z,26.70
2018-10-17T14:08:59.557Z,27.70
2018-10-17T14:11:28.237Z,20.80
2018-10-17T14:13:56.893Z,24.87
2018-10-17T14:16:25.576Z,21.77
2018-10-17T14:18:54.251Z,27.57
2018-10-17T14:21:22.940Z,26.43
2018-10-17T14:23:51.640Z,23.10
2018-10-17T14:26:20.275Z,25.87
2018-10-17T14:28:49.001Z,20.47
2018-10-17T14:31:17.653Z,22.23
2018-10-17T14:33:46.348Z,20.57
2018-10-17T14:36:15.110Z,24.83
2018-10-17T14:38:43.708Z,22.60
2018-10-17T14:41:12.388Z,28.00
2018-10-17T14:43:41.012Z,25.13
2018-10-17T14:46:09.694Z,23.77
2018-10-17T14:48:38.334Z,25.00
2018-10-17T14:51:07.054Z,25.97
2018-10-17T14:53:35.656Z,21.47
2018-10-17T14:56:04.379Z,19.87
2018-10-17T14:58:33.020Z,22.57
2018-10-17T15:01:01.735Z,21.07
2018-10-17T15:03:30.380Z,21.47
2018-10-17T15:05:59.320Z,22.27
2018-10-17T15:08:27.974Z,25.77
2018-10-17T15:10:56.871Z,28.67
2018-10-17T15:13:25.368Z,21.60
2018-10-17T15:15:54.089Z,24.77
2018-10-17T15:18:22.749Z,23.73
2018-10-17T15:20:51.593Z,25.90
2018-10-17T15:23:20.239Z,29.33
2018-10-17T15:25:49.155Z,21.27
2018-10-17T15:28:18.223Z,18.13
2018-10-17T15:30:46.987Z,25.10
2018-10-17T15:33:15.641Z,35.67
2018-10-17T15:35:44.471Z,30.47
2018-10-17T15:38:13.202Z,37.33
2018-10-17T15:40:41.976Z,26.67
2018-10-17T15:43:10.692Z,26.63
2018-10-17T15:45:39.307Z,25.90
2018-10-17T15:48:08.004Z,30.13
2018-10-17T15:50:36.672Z,25.93
2018-10-17T15:53:05.634Z,23.77
2018-10-17T15:55:34.572Z,24.00
2018-10-17T15:58:03.255Z,26.93
2018-10-17T16:00:31.898Z,22.80
2018-10-17T16:03:00.584Z,25.60
2018-10-17T16:05:30.064Z,29.50
2018-10-17T16:07:59.048Z,26.57
2018-10-17T16:10:27.840Z,25.57
2018-10-17T16:12:56.512Z,43.13
2018-10-17T16:15:25.226Z,35.50
2018-10-17T16:17:54.023Z,23.77
2018-10-17T16:20:22.677Z,26.73
2018-10-17T16:22:51.438Z,26.27
2018-10-17T16:25:20.456Z,25.53
2018-10-17T16:27:49.120Z,37.00
2018-10-17T16:30:17.877Z,26.47
2018-10-17T16:32:46.665Z,29.47
2018-10-17T16:35:15.357Z,30.80
2018-10-17T16:37:44.143Z,31.60
2018-10-17T16:40:12.841Z,28.10
2018-10-17T16:42:41.832Z,28.10
2018-10-17T16:45:11.277Z,28.77
2018-10-17T16:47:40.349Z,25.83
2018-10-17T16:50:09.000Z,38.30
2018-10-17T16:52:37.620Z,33.57
2018-10-17T16:55:07.346Z,30.43
2018-10-17T16:57:36.384Z,47.57
2018-10-17T17:00:06.767Z,47.87
2018-10-17T17:02:35.546Z,48.20
2018-10-17T17:05:04.490Z,46.87
2018-10-17T17:07:33.143Z,47.33
2018-10-17T17:10:01.829Z,48.50
2018-10-17T17:12:30.493Z,42.37
2018-10-17T17:14:59.201Z,46.80
2018-10-17T17:17:27.813Z,50.97
2018-10-17T17:19:56.510Z,41.60
2018-10-17T17:22:25.170Z,46.70
2018-10-17T17:24:53.805Z,54.40
2018-10-17T17:27:22.494Z,45.40
2018-10-17T17:29:51.506Z,46.73
2018-10-17T17:32:20.105Z,45.47
2018-10-17T17:34:49.008Z,38.73
2018-10-17T17:37:17.684Z,42.97
2018-10-17T17:39:46.425Z,38.47
2018-10-17T17:42:15.074Z,44.83
2018-10-17T17:44:43.738Z,47.03
2018-10-17T17:47:12.446Z,35.57
2018-10-17T17:49:41.118Z,43.10
2018-10-17T17:52:09.851Z,40.23
2018-10-17T17:54:38.474Z,44.03
2018-10-17T17:57:07.458Z,44.70
2018-10-17T17:59:36.448Z,42.77
2018-10-17T18:02:05.413Z,38.77
2018-10-17T18:04:34.086Z,39.00
2018-10-17T18:07:03.259Z,49.67
2018-10-17T18:09:32.024Z,36.50
2018-10-17T18:12:00.742Z,43.43
2018-10-17T18:14:29.393Z,39.10
2018-10-17T18:16:58.038Z,38.17
2018-10-17T18:19:26.712Z,37.77
2018-10-17T18:21:55.395Z,46.27
2018-10-17T18:24:24.106Z,41.03
2018-10-17T18:26:52.756Z,44.37
2018-10-17T18:29:21.459Z,46.23
2018-10-17T18:31:50.151Z,42.53
2018-10-17T18:34:18.846Z,43.20
2018-10-17T18:36:48.187Z,37.87
2018-10-17T18:39:17.033Z,36.17
2018-10-17T18:41:45.667Z,36.20
2018-10-17T18:44:14.339Z,35.53
2018-10-17T18:46:42.995Z,32.73
2018-10-17T18:49:11.711Z,27.30
2018-10-17T18:51:40.367Z,28.10
2018-10-17T18:54:09.155Z,27.47
2018-10-17T18:56:37.815Z,23.67
2018-10-17T18:59:06.695Z,26.37
2018-10-17T19:01:35.430Z,27.37
2018-10-17T19:04:03.991Z,25.27
2018-10-17T19:06:32.751Z,26.03
2018-10-17T19:09:01.615Z,25.50
2018-10-17T19:11:30.285Z,26.47
2018-10-17T19:13:58.947Z,28.87
2018-10-17T19:16:27.747Z,28.10
2018-10-17T19:18:56.461Z,31.73
2018-10-17T19:21:25.153Z,30.90
2018-10-17T19:23:53.811Z,26.17
2018-10-17T19:26:22.679Z,27.07
2018-10-17T19:28:51.347Z,29.17
2018-10-17T19:31:20.049Z,36.17
2018-10-17T19:33:48.762Z,28.23
2018-10-17T19:36:17.461Z,44.57
2018-10-17T19:38:46.097Z,34.17
2018-10-17T19:41:14.795Z,34.37
2018-10-17T19:43:43.456Z,31.60
2018-10-17T19:46:12.133Z,32.07
2018-10-17T19:48:41.189Z,30.63
2018-10-17T19:51:09.883Z,31.37
2018-10-17T19:53:38.490Z,33.33
2018-10-17T19:56:07.318Z,32.17
2018-10-17T19:58:35.966Z,30.87
2018-10-17T20:01:04.770Z,26.23
2018-10-17T20:03:33.457Z,31.43
2018-10-17T20:06:02.145Z,28.13
2018-10-17T20:08:30.928Z,27.50
2018-10-17T20:10:59.622Z,30.13
2018-10-17T20:13:28.260Z,33.87
2018-10-17T20:15:56.921Z,26.57
2018-10-17T20:18:25.620Z,33.63
2018-10-17T20:20:54.323Z,35.07
2018-10-17T20:23:22.971Z,33.47
2018-10-17T20:25:51.656Z,34.73
2018-10-17T20:28:20.288Z,34.87
2018-10-17T20:30:49.003Z,33.17
2018-10-17T20:33:17.676Z,33.27
2018-10-17T20:35:46.528Z,29.40
2018-10-17T20:38:15.156Z,31.80
2018-10-17T20:40:43.831Z,34.20
2018-10-17T20:43:12.494Z,38.63
2018-10-17T20:45:41.177Z,36.77
2018-10-17T20:48:09.861Z,28.50
2018-10-17T20:50:38.554Z,38.27
2018-10-17T20:53:07.208Z,31.57
2018-10-17T20:55:35.855Z,32.43
2018-10-17T20:58:04.798Z,37.87
2018-10-17T21:00:33.418Z,29.57
2018-10-17T21:03:02.095Z,35.17
2018-10-17T21:05:30.749Z,31.40
2018-10-17T21:07:59.455Z,32.30
2018-10-17T21:10:28.105Z,29.60
2018-10-17T21:12:56.755Z,33.40
2018-10-17T21:15:25.411Z,30.20
2018-10-17T21:17:54.081Z,35.20
2018-10-17T21:20:22.774Z,31.63
2018-10-17T21:22:51.412Z,27.20
2018-10-17T21:25:20.068Z,28.77
2018-10-17T21:27:48.735Z,30.57
2018-10-17T21:30:17.786Z,26.70
2018-10-17T21:32:46.458Z,34.50
2018-10-17T21:35:15.125Z,34.13
2018-10-17T21:37:43.776Z,30.60
2018-10-17T21:40:13.725Z,27.30
2018-10-17T21:42:42.404Z,30.20
2018-10-17T21:45:11.076Z,31.77
2018-10-17T21:47:39.768Z,34.53
2018-10-17T21:50:09.136Z,29.27
2018-10-17T21:52:37.744Z,34.10
2018-10-17T21:55:06.406Z,32.63
2018-10-17T21:57:35.314Z,31.60
2018-10-17T22:00:04.686Z,34.53
2018-10-17T22:02:33.342Z,28.83
2018-10-17T22:05:02.019Z,36.67
2018-10-17T22:07:30.665Z,25.97
2018-10-17T22:09:59.334Z,28.93
2018-10-17T22:12:28.010Z,38.07
2018-10-17T22:14:56.676Z,34.30
2018-10-17T22:17:28.576Z,33.97
2018-10-17T22:19:57.375Z,32.80
2018-10-17T22:22:26.492Z,30.27
2018-10-17T22:24:55.902Z,35.30
2018-10-17T22:27:24.554Z,27.67
2018-10-17T22:29:53.457Z,32.50
2018-10-17T22:32:22.077Z,36.07
2018-10-17T22:34:50.732Z,37.00
2018-10-17T22:37:19.372Z,29.47
2018-10-17T22:39:48.028Z,37.77
2018-10-17T22:42:16.686Z,32.77
2018-10-17T22:44:45.342Z,32.30
2018-10-17T22:47:13.985Z,28.43
2018-10-17T22:49:42.657Z,29.87
2018-10-17T22:52:11.287Z,29.77
2018-10-17T22:54:39.952Z,26.40
2018-10-17T22:57:08.636Z,33.20
2018-10-17T22:59:37.315Z,31.50
2018-10-17T23:02:06.076Z,29.07
2018-10-17T23:04:34.627Z,29.93
2018-10-17T23:07:03.293Z,30.40
2018-10-17T23:09:31.935Z,30.50
2018-10-17T23:12:00.592Z,30.77
2018-10-17T23:14:29.248Z,30.40
2018-10-17T23:16:57.906Z,29.60
2018-10-17T23:19:26.551Z,27.67
2018-10-17T23:21:55.222Z,28.03
2018-10-17T23:24:23.862Z,29.77
2018-10-17T23:26:52.616Z,33.23
2018-10-17T23:29:21.410Z,32.53
2018-10-17T23:31:50.084Z,26.27
2018-10-17T23:34:18.740Z,29.17
2018-10-17T23:36:47.390Z,32.17
2018-10-17T23:39:16.060Z,26.13
2018-10-17T23:41:44.716Z,33.03
2018-10-17T23:44:13.433Z,29.80
2018-10-17T23:46:42.006Z,32.97
2018-10-17T23:49:10.648Z,32.77
2018-10-17T23:51:39.324Z,26.50
2018-10-17T23:54:08.041Z,32.60
2018-10-17T23:56:36.629Z,30.57
2018-10-17T23:59:05.370Z,27.03
